sensor_id;sensor_type;location;lat;lon;timestamp;P1;durP1;ratioP1;P2;durP2;ratioP2
11245;SDS011;59870;50.106;8.580;2024-03-02T00:01:59;9.73;;;8.97;;
11245;SDS011;59870;50.106;8.580;2024-03-02T00:04:28;11.17;;;10.27;;
11245;SDS011;59870;50.106;8.580;2024-03-02T00:06:57;10.37;;;9.37;;
11245;SDS011;59870;50.106;8.580;2024-03-02T00:09:27;11.33;;;10.20;;
11245;SDS011;59870;50.106;8.580;2024-03-02T00:11:55;11.17;;;10.37;;
11245;SDS011;59870;50.106;8.580;2024-03-02T00:14:24;11.00;;;10.10;;
11245;SDS011;59870;50.106;8.580;2024-03-02T00:17:02;10.87;;;9.97;;
11245;SDS011;59870;50.106;8.580;2024-03-02T00:19:31;10.90;;;10.10;;
11245;SDS011;59870;50.106;8.580;2024-03-02T00:22:00;11.10;;;10.07;;
11245;SDS011;59870;50.106;8.580;2024-03-02T00:24:31;11.70;;;10.60;;
11245;SDS011;59870;50.106;8.580;2024-03-02T00:27:02;11.57;;;10.47;;
11245;SDS011;59870;50.106;8.580;2024-03-02T00:29:34;10.73;;;9.70;;
11245;SDS011;59870;50.106;8.580;2024-03-02T00:32:03;12.10;;;10.83;;
11245;SDS011;59870;50.106;8.580;2024-03-02T00:34:35;11.03;;;9.90;;
11245;SDS011;59870;50.106;8.580;2024-03-02T00:37:04;11.17;;;10.27;;
11245;SDS011;59870;50.106;8.580;2024-03-02T00:39:34;10.37;;;9.27;;
11245;SDS011;59870;50.106;8.580;2024-03-02T00:42:03;12.10;;;11.03;;
11245;SDS011;59870;50.106;8.580;2024-03-02T00:44:33;10.23;;;9.47;;
11245;SDS011;59870;50.106;8.580;2024-03-02T00:47:03;10.37;;;9.57;;
11245;SDS011;59870;50.106;8.580;2024-03-02T00:49:32;10.27;;;9.47;;
11245;SDS011;59870;50.106;8.580;2024-03-02T00:52:00;9.50;;;8.80;;
11245;SDS011;59870;50.106;8.580;2024-03-02T00:54:30;9.83;;;9.03;;
11245;SDS011;59870;50.106;8.580;2024-03-02T00:57:00;9.70;;;8.90;;
11245;SDS011;59870;50.106;8.580;2024-03-02T00:59:29;10.13;;;9.33;;
11245;SDS011;59870;50.106;8.580;2024-03-02T01:01:58;11.63;;;10.53;;
11245;SDS011;59870;50.106;8.580;2024-03-02T01:04:28;14.00;;;11.50;;
11245;SDS011;59870;50.106;8.580;2024-03-02T01:06:56;12.97;;;11.77;;
11245;SDS011;59870;50.106;8.580;2024-03-02T01:09:25;11.70;;;10.70;;
11245;SDS011;59870;50.106;8.580;2024-03-02T01:11:55;11.57;;;10.67;;
11245;SDS011;59870;50.106;8.580;2024-03-02T01:14:25;11.60;;;10.80;;
11245;SDS011;59870;50.106;8.580;2024-03-02T01:16:53;10.70;;;9.90;;
11245;SDS011;59870;50.106;8.580;2024-03-02T01:19:22;10.57;;;9.67;;
11245;SDS011;59870;50.106;8.580;2024-03-02T01:21:51;14.97;;;9.70;;
11245;SDS011;59870;50.106;8.580;2024-03-02T01:24:19;12.83;;;11.50;;
11245;SDS011;59870;50.106;8.580;2024-03-02T01:26:48;10.50;;;9.50;;
11245;SDS011;59870;50.106;8.580;2024-03-02T01:29:17;10.60;;;9.77;;
11245;SDS011;59870;50.106;8.580;2024-03-02T01:31:48;10.60;;;9.60;;
11245;SDS011;59870;50.106;8.580;2024-03-02T01:34:15;14.03;;;12.73;;
11245;SDS011;59870;50.106;8.580;2024-03-02T01:36:44;11.83;;;10.77;;
11245;SDS011;59870;50.106;8.580;2024-03-02T01:39:13;11.00;;;10.00;;
11245;SDS011;59870;50.106;8.580;2024-03-02T01:41:42;11.83;;;10.83;;
11245;SDS011;59870;50.106;8.580;2024-03-02T01:44:10;11.10;;;10.13;;
11245;SDS011;59870;50.106;8.580;2024-03-02T01:46:39;11.57;;;10.67;;
11245;SDS011;59870;50.106;8.580;2024-03-02T01:49:09;11.67;;;10.67;;
11245;SDS011;59870;50.106;8.580;2024-03-02T01:51:38;14.87;;;13.47;;
11245;SDS011;59870;50.106;8.580;2024-03-02T01:54:07;12.53;;;11.03;;
11245;SDS011;59870;50.106;8.580;2024-03-02T01:56:35;11.33;;;10.27;;
11245;SDS011;59870;50.106;8.580;2024-03-02T01:59:04;11.93;;;10.80;;
11245;SDS011;59870;50.106;8.580;2024-03-02T02:01:33;10.60;;;9.60;;
11245;SDS011;59870;50.106;8.580;2024-03-02T02:04:01;10.90;;;10.10;;
11245;SDS011;59870;50.106;8.580;2024-03-02T02:06:31;9.90;;;9.10;;
11245;SDS011;59870;50.106;8.580;2024-03-02T02:09:00;10.53;;;9.53;;
11245;SDS011;59870;50.106;8.580;2024-03-02T02:11:29;11.40;;;10.50;;
11245;SDS011;59870;50.106;8.580;2024-03-02T02:13:58;11.63;;;10.53;;
11245;SDS011;59870;50.106;8.580;2024-03-02T02:16:27;10.83;;;9.93;;
11245;SDS011;59870;50.106;8.580;2024-03-02T02:18:55;10.93;;;10.23;;
11245;SDS011;59870;50.106;8.580;2024-03-02T02:21:25;11.83;;;10.73;;
11245;SDS011;59870;50.106;8.580;2024-03-02T02:23:54;11.17;;;10.17;;
11245;SDS011;59870;50.106;8.580;2024-03-02T02:26:23;11.10;;;10.10;;
11245;SDS011;59870;50.106;8.580;2024-03-02T02:28:52;10.53;;;9.17;;
11245;SDS011;59870;50.106;8.580;2024-03-02T02:31:20;9.10;;;8.30;;
11245;SDS011;59870;50.106;8.580;2024-03-02T02:33:49;9.90;;;9.20;;
11245;SDS011;59870;50.106;8.580;2024-03-02T02:36:18;10.43;;;9.63;;
11245;SDS011;59870;50.106;8.580;2024-03-02T02:38:49;10.70;;;10.00;;
11245;SDS011;59870;50.106;8.580;2024-03-02T02:41:18;11.80;;;10.80;;
11245;SDS011;59870;50.106;8.580;2024-03-02T02:43:47;10.83;;;9.97;;
11245;SDS011;59870;50.106;8.580;2024-03-02T02:46:16;10.60;;;9.80;;
11245;SDS011;59870;50.106;8.580;2024-03-02T02:48:45;12.10;;;10.67;;
11245;SDS011;59870;50.106;8.580;2024-03-02T02:51:14;10.63;;;9.77;;
11245;SDS011;59870;50.106;8.580;2024-03-02T02:53:44;11.43;;;10.43;;
11245;SDS011;59870;50.106;8.580;2024-03-02T02:56:14;10.43;;;9.53;;
11245;SDS011;59870;50.106;8.580;2024-03-02T02:58:43;10.90;;;10.13;;
11245;SDS011;59870;50.106;8.580;2024-03-02T03:01:12;10.73;;;9.93;;
11245;SDS011;59870;50.106;8.580;2024-03-02T03:03:41;11.23;;;10.43;;
11245;SDS011;59870;50.106;8.580;2024-03-02T03:06:10;10.50;;;9.73;;
11245;SDS011;59870;50.106;8.580;2024-03-02T03:08:39;11.23;;;10.43;;
11245;SDS011;59870;50.106;8.580;2024-03-02T03:11:08;11.80;;;10.73;;
11245;SDS011;59870;50.106;8.580;2024-03-02T03:13:39;11.07;;;10.17;;
11245;SDS011;59870;50.106;8.580;2024-03-02T03:16:08;12.40;;;11.37;;
11245;SDS011;59870;50.106;8.580;2024-03-02T03:18:37;11.10;;;10.30;;
11245;SDS011;59870;50.106;8.580;2024-03-02T03:21:06;11.07;;;10.00;;
11245;SDS011;59870;50.106;8.580;2024-03-02T03:23:34;10.30;;;9.50;;
11245;SDS011;59870;50.106;8.580;2024-03-02T03:26:03;9.70;;;9.00;;
11245;SDS011;59870;50.106;8.580;2024-03-02T03:28:32;9.50;;;8.80;;
11245;SDS011;59870;50.106;8.580;2024-03-02T03:31:02;11.43;;;9.87;;
11245;SDS011;59870;50.106;8.580;2024-03-02T03:33:31;11.80;;;10.70;;
11245;SDS011;59870;50.106;8.580;2024-03-02T03:36:00;10.43;;;9.53;;
11245;SDS011;59870;50.106;8.580;2024-03-02T03:38:30;10.83;;;10.03;;
11245;SDS011;59870;50.106;8.580;2024-03-02T03:40:59;10.20;;;9.40;;
11245;SDS011;59870;50.106;8.580;2024-03-02T03:43:27;11.77;;;10.77;;
11245;SDS011;59870;50.106;8.580;2024-03-02T03:45:56;12.30;;;11.10;;
11245;SDS011;59870;50.106;8.580;2024-03-02T03:48:26;11.47;;;10.40;;
11245;SDS011;59870;50.106;8.580;2024-03-02T03:50:57;9.27;;;8.73;;
11245;SDS011;59870;50.106;8.580;2024-03-02T03:53:26;9.93;;;9.20;;
11245;SDS011;59870;50.106;8.580;2024-03-02T03:55:55;11.33;;;10.43;;
11245;SDS011;59870;50.106;8.580;2024-03-02T03:58:23;11.67;;;10.57;;
11245;SDS011;59870;50.106;8.580;2024-03-02T04:00:52;11.00;;;9.87;;
11245;SDS011;59870;50.106;8.580;2024-03-02T04:03:20;11.13;;;10.27;;
11245;SDS011;59870;50.106;8.580;2024-03-02T04:05:50;12.07;;;10.97;;
11245;SDS011;59870;50.106;8.580;2024-03-02T04:08:19;12.73;;;11.67;;
11245;SDS011;59870;50.106;8.580;2024-03-02T04:10:48;12.83;;;11.57;;
11245;SDS011;59870;50.106;8.580;2024-03-02T04:13:17;12.90;;;11.90;;
11245;SDS011;59870;50.106;8.580;2024-03-02T04:15:46;11.47;;;10.57;;
11245;SDS011;59870;50.106;8.580;2024-03-02T04:18:15;11.47;;;10.57;;
11245;SDS011;59870;50.106;8.580;2024-03-02T04:20:44;11.93;;;10.93;;
11245;SDS011;59870;50.106;8.580;2024-03-02T04:23:14;12.03;;;10.93;;
11245;SDS011;59870;50.106;8.580;2024-03-02T04:25:42;12.23;;;11.23;;
11245;SDS011;59870;50.106;8.580;2024-03-02T04:28:11;13.43;;;12.40;;
11245;SDS011;59870;50.106;8.580;2024-03-02T04:30:39;13.03;;;11.83;;
11245;SDS011;59870;50.106;8.580;2024-03-02T04:33:08;14.53;;;13.13;;
11245;SDS011;59870;50.106;8.580;2024-03-02T04:35:38;13.70;;;12.40;;
11245;SDS011;59870;50.106;8.580;2024-03-02T04:38:06;14.03;;;12.83;;
11245;SDS011;59870;50.106;8.580;2024-03-02T04:40:36;14.37;;;13.07;;
11245;SDS011;59870;50.106;8.580;2024-03-02T04:43:05;15.07;;;13.77;;
11245;SDS011;59870;50.106;8.580;2024-03-02T04:45:37;18.67;;;13.70;;
11245;SDS011;59870;50.106;8.580;2024-03-02T04:48:07;14.80;;;13.50;;
11245;SDS011;59870;50.106;8.580;2024-03-02T04:50:35;16.07;;;14.47;;
11245;SDS011;59870;50.106;8.580;2024-03-02T04:53:04;21.20;;;14.23;;
11245;SDS011;59870;50.106;8.580;2024-03-02T04:55:33;16.17;;;14.67;;
11245;SDS011;59870;50.106;8.580;2024-03-02T04:58:31;14.57;;;12.90;;
11245;SDS011;59870;50.106;8.580;2024-03-02T05:01:00;14.03;;;12.83;;
11245;SDS011;59870;50.106;8.580;2024-03-02T05:03:29;15.80;;;14.30;;
11245;SDS011;59870;50.106;8.580;2024-03-02T05:05:58;15.93;;;14.47;;
11245;SDS011;59870;50.106;8.580;2024-03-02T05:08:26;16.67;;;15.17;;
11245;SDS011;59870;50.106;8.580;2024-03-02T05:10:56;16.63;;;15.13;;
11245;SDS011;59870;50.106;8.580;2024-03-02T05:13:48;16.53;;;15.03;;
11245;SDS011;59870;50.106;8.580;2024-03-02T05:16:16;16.50;;;14.90;;
11245;SDS011;59870;50.106;8.580;2024-03-02T05:18:44;16.70;;;15.10;;
11245;SDS011;59870;50.106;8.580;2024-03-02T05:21:13;16.77;;;15.17;;
11245;SDS011;59870;50.106;8.580;2024-03-02T05:23:42;15.93;;;14.33;;
11245;SDS011;59870;50.106;8.580;2024-03-02T05:26:11;17.33;;;15.63;;
11245;SDS011;59870;50.106;8.580;2024-03-02T05:28:40;16.13;;;14.63;;
11245;SDS011;59870;50.106;8.580;2024-03-02T05:31:11;15.93;;;14.40;;
11245;SDS011;59870;50.106;8.580;2024-03-02T05:33:42;16.90;;;15.20;;
11245;SDS011;59870;50.106;8.580;2024-03-02T05:36:11;14.90;;;13.50;;
11245;SDS011;59870;50.106;8.580;2024-03-02T05:38:41;16.30;;;14.23;;
11245;SDS011;59870;50.106;8.580;2024-03-02T05:41:09;16.57;;;14.67;;
11245;SDS011;59870;50.106;8.580;2024-03-02T05:43:39;16.83;;;15.33;;
11245;SDS011;59870;50.106;8.580;2024-03-02T05:46:07;15.50;;;14.03;;
11245;SDS011;59870;50.106;8.580;2024-03-02T05:48:37;16.57;;;14.97;;
11245;SDS011;59870;50.106;8.580;2024-03-02T05:51:06;16.63;;;15.03;;
11245;SDS011;59870;50.106;8.580;2024-03-02T05:53:35;17.30;;;15.70;;
11245;SDS011;59870;50.106;8.580;2024-03-02T05:56:05;17.17;;;14.83;;
11245;SDS011;59870;50.106;8.580;2024-03-02T05:58:34;16.13;;;14.63;;
11245;SDS011;59870;50.106;8.580;2024-03-02T06:01:16;14.10;;;12.80;;
11245;SDS011;59870;50.106;8.580;2024-03-02T06:03:47;13.10;;;11.77;;
11245;SDS011;59870;50.106;8.580;2024-03-02T06:06:16;13.83;;;12.73;;
11245;SDS011;59870;50.106;8.580;2024-03-02T06:08:45;13.00;;;12.00;;
11245;SDS011;59870;50.106;8.580;2024-03-02T06:11:13;14.00;;;12.70;;
11245;SDS011;59870;50.106;8.580;2024-03-02T06:13:42;13.90;;;12.63;;
11245;SDS011;59870;50.106;8.580;2024-03-02T06:16:11;14.13;;;12.90;;
11245;SDS011;59870;50.106;8.580;2024-03-02T06:18:40;15.10;;;13.80;;
11245;SDS011;59870;50.106;8.580;2024-03-02T06:21:10;16.40;;;14.80;;
11245;SDS011;59870;50.106;8.580;2024-03-02T06:23:39;15.60;;;14.30;;
11245;SDS011;59870;50.106;8.580;2024-03-02T06:26:08;16.83;;;15.33;;
11245;SDS011;59870;50.106;8.580;2024-03-02T06:28:37;16.60;;;14.97;;
11245;SDS011;59870;50.106;8.580;2024-03-02T06:31:05;15.87;;;14.47;;
11245;SDS011;59870;50.106;8.580;2024-03-02T06:33:34;16.87;;;15.27;;
11245;SDS011;59870;50.106;8.580;2024-03-02T06:36:04;21.00;;;18.80;;
11245;SDS011;59870;50.106;8.580;2024-03-02T06:38:36;18.77;;;16.77;;
11245;SDS011;59870;50.106;8.580;2024-03-02T06:41:09;20.23;;;18.07;;
11245;SDS011;59870;50.106;8.580;2024-03-02T06:43:37;17.97;;;16.27;;
11245;SDS011;59870;50.106;8.580;2024-03-02T06:46:07;20.63;;;18.47;;
11245;SDS011;59870;50.106;8.580;2024-03-02T06:48:36;21.97;;;18.83;;
11245;SDS011;59870;50.106;8.580;2024-03-02T06:51:05;19.57;;;17.53;;
11245;SDS011;59870;50.106;8.580;2024-03-02T06:53:34;20.83;;;18.73;;
11245;SDS011;59870;50.106;8.580;2024-03-02T06:56:04;20.27;;;18.17;;
11245;SDS011;59870;50.106;8.580;2024-03-02T06:58:35;21.50;;;18.57;;
11245;SDS011;59870;50.106;8.580;2024-03-02T07:01:04;20.50;;;18.37;;
11245;SDS011;59870;50.106;8.580;2024-03-02T07:03:33;21.07;;;19.00;;
11245;SDS011;59870;50.106;8.580;2024-03-02T07:06:01;21.20;;;18.27;;
11245;SDS011;59870;50.106;8.580;2024-03-02T07:08:31;21.70;;;18.30;;
11245;SDS011;59870;50.106;8.580;2024-03-02T07:11:00;21.53;;;19.17;;
11245;SDS011;59870;50.106;8.580;2024-03-02T07:13:30;22.40;;;18.83;;
11245;SDS011;59870;50.106;8.580;2024-03-02T07:15:59;21.30;;;18.47;;
11245;SDS011;59870;50.106;8.580;2024-03-02T07:18:51;20.23;;;18.13;;
11245;SDS011;59870;50.106;8.580;2024-03-02T07:21:20;23.23;;;18.73;;
11245;SDS011;59870;50.106;8.580;2024-03-02T07:23:49;20.20;;;18.17;;
11245;SDS011;59870;50.106;8.580;2024-03-02T07:26:18;20.83;;;18.73;;
11245;SDS011;59870;50.106;8.580;2024-03-02T07:28:51;18.43;;;16.53;;
11245;SDS011;59870;50.106;8.580;2024-03-02T07:31:20;20.60;;;18.33;;
11245;SDS011;59870;50.106;8.580;2024-03-02T07:33:49;20.53;;;18.47;;
11245;SDS011;59870;50.106;8.580;2024-03-02T07:36:20;19.90;;;17.80;;
11245;SDS011;59870;50.106;8.580;2024-03-02T07:38:48;19.23;;;17.20;;
11245;SDS011;59870;50.106;8.580;2024-03-02T07:41:17;21.20;;;17.73;;
11245;SDS011;59870;50.106;8.580;2024-03-02T07:43:46;20.60;;;17.70;;
11245;SDS011;59870;50.106;8.580;2024-03-02T07:46:16;20.67;;;18.67;;
11245;SDS011;59870;50.106;8.580;2024-03-02T07:48:45;20.63;;;18.50;;
11245;SDS011;59870;50.106;8.580;2024-03-02T07:51:14;19.03;;;16.90;;
11245;SDS011;59870;50.106;8.580;2024-03-02T07:53:44;21.10;;;18.67;;
11245;SDS011;59870;50.106;8.580;2024-03-02T07:56:14;19.73;;;17.67;;
11245;SDS011;59870;50.106;8.580;2024-03-02T07:58:48;20.20;;;18.17;;
11245;SDS011;59870;50.106;8.580;2024-03-02T08:01:19;22.27;;;19.87;;
11245;SDS011;59870;50.106;8.580;2024-03-02T08:03:48;21.97;;;19.63;;
11245;SDS011;59870;50.106;8.580;2024-03-02T08:06:18;20.60;;;18.60;;
11245;SDS011;59870;50.106;8.580;2024-03-02T08:08:48;21.57;;;18.83;;
11245;SDS011;59870;50.106;8.580;2024-03-02T08:11:17;22.73;;;19.93;;
11245;SDS011;59870;50.106;8.580;2024-03-02T08:13:46;19.03;;;17.23;;
11245;SDS011;59870;50.106;8.580;2024-03-02T08:16:16;20.27;;;18.20;;
11245;SDS011;59870;50.106;8.580;2024-03-02T08:18:48;19.47;;;17.47;;
11245;SDS011;59870;50.106;8.580;2024-03-02T08:21:17;19.10;;;17.20;;
11245;SDS011;59870;50.106;8.580;2024-03-02T08:23:47;18.40;;;16.50;;
11245;SDS011;59870;50.106;8.580;2024-03-02T08:26:16;19.50;;;17.47;;
11245;SDS011;59870;50.106;8.580;2024-03-02T08:28:48;18.20;;;16.13;;
11245;SDS011;59870;50.106;8.580;2024-03-02T08:31:17;18.97;;;17.20;;
11245;SDS011;59870;50.106;8.580;2024-03-02T08:33:45;19.10;;;17.27;;
11245;SDS011;59870;50.106;8.580;2024-03-02T08:36:15;17.77;;;16.13;;
11245;SDS011;59870;50.106;8.580;2024-03-02T08:38:45;17.57;;;15.87;;
11245;SDS011;59870;50.106;8.580;2024-03-02T08:41:14;19.53;;;15.37;;
11245;SDS011;59870;50.106;8.580;2024-03-02T08:43:43;18.00;;;16.30;;
11245;SDS011;59870;50.106;8.580;2024-03-02T08:46:11;16.70;;;15.13;;
11245;SDS011;59870;50.106;8.580;2024-03-02T08:48:40;18.70;;;16.83;;
11245;SDS011;59870;50.106;8.580;2024-03-02T08:51:09;16.63;;;15.03;;
11245;SDS011;59870;50.106;8.580;2024-03-02T08:53:40;18.73;;;16.77;;
11245;SDS011;59870;50.106;8.580;2024-03-02T08:56:09;27.03;;;24.33;;
11245;SDS011;59870;50.106;8.580;2024-03-02T08:58:38;18.43;;;16.63;;
11245;SDS011;59870;50.106;8.580;2024-03-02T09:01:07;18.13;;;16.40;;
11245;SDS011;59870;50.106;8.580;2024-03-02T09:03:36;18.03;;;16.43;;
11245;SDS011;59870;50.106;8.580;2024-03-02T09:06:05;19.30;;;15.77;;
11245;SDS011;59870;50.106;8.580;2024-03-02T09:08:34;20.33;;;15.77;;
11245;SDS011;59870;50.106;8.580;2024-03-02T09:11:05;19.53;;;17.63;;
11245;SDS011;59870;50.106;8.580;2024-03-02T09:13:35;19.00;;;17.00;;
11245;SDS011;59870;50.106;8.580;2024-03-02T09:16:05;18.60;;;16.80;;
11245;SDS011;59870;50.106;8.580;2024-03-02T09:18:38;18.37;;;16.10;;
11245;SDS011;59870;50.106;8.580;2024-03-02T09:21:07;17.97;;;16.37;;
11245;SDS011;59870;50.106;8.580;2024-03-02T09:23:36;18.80;;;17.00;;
11245;SDS011;59870;50.106;8.580;2024-03-02T09:26:06;17.87;;;16.00;;
11245;SDS011;59870;50.106;8.580;2024-03-02T09:28:36;17.47;;;15.80;;
11245;SDS011;59870;50.106;8.580;2024-03-02T09:31:05;17.37;;;15.87;;
11245;SDS011;59870;50.106;8.580;2024-03-02T09:33:34;17.57;;;15.87;;
11245;SDS011;59870;50.106;8.580;2024-03-02T09:36:03;17.47;;;15.67;;
11245;SDS011;59870;50.106;8.580;2024-03-02T09:38:36;17.03;;;15.40;;
11245;SDS011;59870;50.106;8.580;2024-03-02T09:41:06;18.50;;;16.07;;
11245;SDS011;59870;50.106;8.580;2024-03-02T09:43:35;16.17;;;14.57;;
11245;SDS011;59870;50.106;8.580;2024-03-02T09:46:04;16.37;;;14.83;;
11245;SDS011;59870;50.106;8.580;2024-03-02T09:48:33;16.50;;;15.03;;
11245;SDS011;59870;50.106;8.580;2024-03-02T09:51:02;16.37;;;14.67;;
11245;SDS011;59870;50.106;8.580;2024-03-02T09:53:33;16.53;;;15.13;;
11245;SDS011;59870;50.106;8.580;2024-03-02T09:56:03;16.77;;;15.03;;
11245;SDS011;59870;50.106;8.580;2024-03-02T09:58:34;16.27;;;14.77;;
11245;SDS011;59870;50.106;8.580;2024-03-02T10:01:05;16.40;;;14.93;;
11245;SDS011;59870;50.106;8.580;2024-03-02T10:03:34;15.67;;;14.17;;
11245;SDS011;59870;50.106;8.580;2024-03-02T10:06:20;13.80;;;12.47;;
11245;SDS011;59870;50.106;8.580;2024-03-02T10:08:50;15.97;;;14.53;;
11245;SDS011;59870;50.106;8.580;2024-03-02T10:11:26;14.73;;;13.43;;
11245;SDS011;59870;50.106;8.580;2024-03-02T10:14:05;13.50;;;12.40;;
11245;SDS011;59870;50.106;8.580;2024-03-02T10:16:39;15.10;;;13.70;;
11245;SDS011;59870;50.106;8.580;2024-03-02T10:19:15;13.40;;;12.30;;
11245;SDS011;59870;50.106;8.580;2024-03-02T10:21:46;13.77;;;12.50;;
11245;SDS011;59870;50.106;8.580;2024-03-02T10:24:16;13.70;;;12.50;;
11245;SDS011;59870;50.106;8.580;2024-03-02T10:26:46;13.30;;;12.20;;
11245;SDS011;59870;50.106;8.580;2024-03-02T10:29:18;12.07;;;10.97;;
11245;SDS011;59870;50.106;8.580;2024-03-02T10:31:47;11.20;;;10.30;;
11245;SDS011;59870;50.106;8.580;2024-03-02T10:34:16;12.97;;;11.77;;
11245;SDS011;59870;50.106;8.580;2024-03-02T10:36:46;12.20;;;11.27;;
11245;SDS011;59870;50.106;8.580;2024-03-02T10:39:16;12.87;;;11.77;;
11245;SDS011;59870;50.106;8.580;2024-03-02T10:41:46;12.80;;;11.80;;
11245;SDS011;59870;50.106;8.580;2024-03-02T10:44:19;11.80;;;10.83;;
11245;SDS011;59870;50.106;8.580;2024-03-02T10:46:49;12.60;;;11.50;;
11245;SDS011;59870;50.106;8.580;2024-03-02T10:49:20;12.60;;;11.50;;
11245;SDS011;59870;50.106;8.580;2024-03-02T10:51:51;11.40;;;10.53;;
11245;SDS011;59870;50.106;8.580;2024-03-02T10:54:20;12.13;;;10.97;;
11245;SDS011;59870;50.106;8.580;2024-03-02T10:56:54;12.17;;;10.97;;
11245;SDS011;59870;50.106;8.580;2024-03-02T10:59:28;11.57;;;10.57;;
11245;SDS011;59870;50.106;8.580;2024-03-02T11:02:02;12.80;;;11.83;;
11245;SDS011;59870;50.106;8.580;2024-03-02T11:04:34;12.20;;;11.20;;
11245;SDS011;59870;50.106;8.580;2024-03-02T11:07:04;11.20;;;10.23;;
11245;SDS011;59870;50.106;8.580;2024-03-02T11:09:35;13.33;;;12.00;;
11245;SDS011;59870;50.106;8.580;2024-03-02T11:12:11;12.00;;;11.00;;
11245;SDS011;59870;50.106;8.580;2024-03-02T11:14:43;12.23;;;11.13;;
11245;SDS011;59870;50.106;8.580;2024-03-02T11:17:13;12.17;;;10.90;;
11245;SDS011;59870;50.106;8.580;2024-03-02T11:19:45;10.93;;;10.03;;
11245;SDS011;59870;50.106;8.580;2024-03-02T11:22:18;10.77;;;9.77;;
11245;SDS011;59870;50.106;8.580;2024-03-02T11:24:48;11.37;;;10.37;;
11245;SDS011;59870;50.106;8.580;2024-03-02T11:30:50;11.47;;;10.37;;
11245;SDS011;59870;50.106;8.580;2024-03-02T11:33:24;10.40;;;9.37;;
11245;SDS011;59870;50.106;8.580;2024-03-02T11:35:57;11.17;;;10.17;;
11245;SDS011;59870;50.106;8.580;2024-03-02T11:38:28;12.03;;;10.93;;
11245;SDS011;59870;50.106;8.580;2024-03-02T11:41:02;11.53;;;10.63;;
11245;SDS011;59870;50.106;8.580;2024-03-02T11:43:36;10.40;;;9.60;;
11245;SDS011;59870;50.106;8.580;2024-03-02T11:46:09;10.60;;;9.70;;
11245;SDS011;59870;50.106;8.580;2024-03-02T11:48:41;10.97;;;10.17;;
11245;SDS011;59870;50.106;8.580;2024-03-02T11:51:12;9.83;;;9.00;;
11245;SDS011;59870;50.106;8.580;2024-03-02T11:53:42;9.97;;;9.17;;
11245;SDS011;59870;50.106;8.580;2024-03-02T11:56:14;9.03;;;8.33;;
11245;SDS011;59870;50.106;8.580;2024-03-02T11:58:46;10.30;;;9.53;;
11245;SDS011;59870;50.106;8.580;2024-03-02T12:01:20;10.10;;;9.40;;
11245;SDS011;59870;50.106;8.580;2024-03-02T12:03:50;10.63;;;9.77;;
11245;SDS011;59870;50.106;8.580;2024-03-02T12:06:22;12.27;;;9.97;;
11245;SDS011;59870;50.106;8.580;2024-03-02T12:08:52;9.37;;;8.67;;
11245;SDS011;59870;50.106;8.580;2024-03-02T12:11:22;10.07;;;9.27;;
11245;SDS011;59870;50.106;8.580;2024-03-02T12:13:51;9.63;;;8.83;;
11245;SDS011;59870;50.106;8.580;2024-03-02T12:16:25;9.13;;;8.50;;
11245;SDS011;59870;50.106;8.580;2024-03-02T12:18:55;9.80;;;8.73;;
11245;SDS011;59870;50.106;8.580;2024-03-02T12:21:23;10.40;;;9.47;;
11245;SDS011;59870;50.106;8.580;2024-03-02T12:23:53;10.10;;;9.27;;
11245;SDS011;59870;50.106;8.580;2024-03-02T12:26:22;9.80;;;9.00;;
11245;SDS011;59870;50.106;8.580;2024-03-02T12:28:51;10.03;;;9.23;;
11245;SDS011;59870;50.106;8.580;2024-03-02T12:31:21;9.17;;;8.50;;
11245;SDS011;59870;50.106;8.580;2024-03-02T12:33:51;9.90;;;9.00;;
11245;SDS011;59870;50.106;8.580;2024-03-02T12:36:21;9.03;;;8.13;;
11245;SDS011;59870;50.106;8.580;2024-03-02T12:38:52;8.90;;;8.10;;
11245;SDS011;59870;50.106;8.580;2024-03-02T12:41:22;9.30;;;8.40;;
11245;SDS011;59870;50.106;8.580;2024-03-02T12:43:55;10.07;;;9.13;;
11245;SDS011;59870;50.106;8.580;2024-03-02T13:11:27;8.50;;;7.80;;
11245;SDS011;59870;50.106;8.580;2024-03-02T13:14:02;7.83;;;7.23;;
